KIRK

Kirksville Regional Airport

Kirksville, Missouri, USA

KIRK 110855Z AUTO 24005KT 10SM CLR 00/M03 A3001 RMK AO2 SLP170 T00001033 57021 $

Observed Flight Rules
Dec-11 @ 08:55 UTC (39 minutes ago) Visual Flight Rules
Wind Visibility Clouds
240° at 5 knots 10 miles
  • Clear skies
Temperatures Readings
Current 0°C / 32°F
Dewpoint -3°C / 27°F
Humidity 80%
Altimeter 30.01" Hg
Pressure 1017 hPa
Elevation 293
Observed Flight Rules
Dec-11 @ 08:55 UTC
(39 minutes ago)
VFR
Wind Visibility
240° at 5 knots 10 miles
Clouds
  • Clear skies
Temperature Dewpoint
0°C / 32°F -3°C / 27°F
Humidity Altimeter Pressure
80% 30.01" Hg 1017 hPa